Etusivu
METAR-TAF:

METAR-TAF

Lentoasemat :

Öljynporauslautta

Statfjord A, Norja

Leveyspiiri: 61-15N, Pituuspiiri: 1-51E, korkeus merenpinnasta: 10 m

Tämänhetkinen sää

Tämä raportti tehtiin 21 minuuttia sitten, kello 05.20 UTC
Tuuli 13 kn idästä
Lämpötila 15°C
Kosteus 72%
Ilmanpaine 1003 hPa
Näkyvyys 10 km tai enemmän
ei pilviä alle 1500 m:ssä eikä cumulonimbus-pilviä

METAR: ENSF 150520Z AUTO 09013KT CAVOK 15/10 Q1003 W///S4

Aika: 07:41 (05:41 UTC)


TAF: puuttuu

Säähavainnot ja -ennusteet yli 4000 lentoasemalta (METAR- ja TAF-raportit).

Käytössä olevat sääasemat on merkitty karttaan keltaisilla ja punaisilla pisteillä.

Aseta hiiri pisteen päälle nähdäksesi sääaseman nimen.

Klikkaa sitten nähdäksesi säähavainnot ja -ennusteet.

Kartan vaihtaminen: klikkaa mustalla rastilla varustettuja vihreitä pisteitä, niin voit zoomata sisään; viivalla varustettua vihreää pistettä, niin voit zoomata ulos tai vihreitä nuolia, niin pääset viereisille kartoille.


METAR-TAF: